createdAt,value
2022-11-12T00:00:59.562Z,3.93
2022-11-12T00:03:46.597Z,2.27
2022-11-12T00:06:33.464Z,1.57
2022-11-12T00:09:20.377Z,1.70
2022-11-12T00:12:07.257Z,1.60
2022-11-12T00:14:54.118Z,3.47
2022-11-12T00:17:42.555Z,3.27
2022-11-12T00:20:29.557Z,2.43
2022-11-12T00:23:16.356Z,1.77
2022-11-12T00:26:04.127Z,2.10
2022-11-12T00:28:50.973Z,1.77
2022-11-12T00:31:37.997Z,1.47
2022-11-12T00:34:26.360Z,1.70
2022-11-12T00:37:13.541Z,1.50
2022-11-12T00:40:00.388Z,1.70
2022-11-12T00:42:47.595Z,2.90
2022-11-12T00:45:34.253Z,1.67
2022-11-12T00:48:21.811Z,2.10
2022-11-12T00:51:10.591Z,1.87
2022-11-12T00:53:57.734Z,2.30
2022-11-12T00:56:46.955Z,3.10
2022-11-12T00:59:34.097Z,3.53
2022-11-12T01:02:22.331Z,2.93
2022-11-12T01:05:09.975Z,3.23
2022-11-12T01:07:58.049Z,2.70
2022-11-12T01:10:45.226Z,3.13
2022-11-12T01:13:31.894Z,3.67
2022-11-12T01:16:21.020Z,3.40
2022-11-12T01:19:09.849Z,3.00
2022-11-12T01:21:56.564Z,2.50
2022-11-12T01:24:44.884Z,2.80
2022-11-12T01:27:31.972Z,1.70
2022-11-12T01:30:20.102Z,3.07
2022-11-12T01:33:06.919Z,2.57
2022-11-12T01:35:53.892Z,2.10
2022-11-12T01:38:42.533Z,2.83
2022-11-12T01:41:33.488Z,2.23
2022-11-12T01:44:22.581Z,2.13
2022-11-12T01:47:18.579Z,1.90
2022-11-12T01:50:15.038Z,2.50
2022-11-12T01:53:05.783Z,2.20
2022-11-12T01:55:53.862Z,2.40
2022-11-12T01:58:42.702Z,1.90
2022-11-12T02:01:29.665Z,1.53
2022-11-12T02:04:17.733Z,1.67
2022-11-12T02:07:05.689Z,1.73
2022-11-12T02:09:53.656Z,2.30
2022-11-12T02:12:58.109Z,2.00
2022-11-12T02:15:46.809Z,1.87
2022-11-12T02:18:33.737Z,1.83
2022-11-12T02:21:22.465Z,1.50
2022-11-12T02:24:34.278Z,1.90
2022-11-12T02:27:21.633Z,1.90
2022-11-12T02:30:09.452Z,1.43
2022-11-12T02:32:56.380Z,1.77
2022-11-12T02:35:43.499Z,2.07
2022-11-12T02:38:32.095Z,1.67
2022-11-12T02:41:19.398Z,1.73
2022-11-12T02:44:06.441Z,1.87
2022-11-12T02:46:54.024Z,1.47
2022-11-12T02:49:43.657Z,1.77
2022-11-12T02:52:30.516Z,1.93
2022-11-12T02:55:18.965Z,2.50
2022-11-12T02:58:06.029Z,2.20
2022-11-12T03:00:53.269Z,2.27
2022-11-12T03:03:40.370Z,1.80
2022-11-12T03:06:27.370Z,1.50
2022-11-12T03:09:14.249Z,1.30
2022-11-12T03:12:02.567Z,1.43
2022-11-12T03:14:49.626Z,2.20
2022-11-12T03:17:36.574Z,1.30
2022-11-12T03:20:23.971Z,1.20
2022-11-12T03:23:12.306Z,1.37
2022-11-12T03:25:59.360Z,1.60
2022-11-12T03:28:47.652Z,1.30
2022-11-12T03:31:35.738Z,1.00
2022-11-12T03:34:22.629Z,2.00
2022-11-12T03:37:10.444Z,1.83
2022-11-12T03:39:57.167Z,2.83
2022-11-12T03:42:47.621Z,2.20
2022-11-12T03:45:36.144Z,7.83
2022-11-12T03:48:23.349Z,2.03
2022-11-12T03:51:12.351Z,2.57
2022-11-12T03:53:59.426Z,2.40
2022-11-12T03:56:46.125Z,4.20
2022-11-12T03:59:33.042Z,2.37
2022-11-12T04:02:21.592Z,4.23
2022-11-12T04:05:27.560Z,3.03
2022-11-12T04:08:33.417Z,2.50
2022-11-12T04:11:21.130Z,3.00
2022-11-12T04:14:07.860Z,2.10
2022-11-12T04:17:12.872Z,1.73
2022-11-12T04:20:17.620Z,1.40
2022-11-12T04:23:04.663Z,1.77
2022-11-12T04:26:09.257Z,1.53
2022-11-12T04:29:21.826Z,1.87
2022-11-12T04:32:08.504Z,2.67
2022-11-12T04:34:56.752Z,1.77
2022-11-12T04:37:48.553Z,2.07
2022-11-12T04:40:52.757Z,1.40
2022-11-12T04:43:57.413Z,1.50
2022-11-12T04:46:44.207Z,2.10
2022-11-12T04:49:31.307Z,2.30
2022-11-12T04:52:18.888Z,1.77
2022-11-12T04:55:08.389Z,1.93
2022-11-12T04:58:00.319Z,2.00
2022-11-12T05:00:48.264Z,1.60
2022-11-12T05:03:35.282Z,2.47
2022-11-12T05:06:39.941Z,2.00
2022-11-12T05:09:29.056Z,1.30
2022-11-12T05:12:17.855Z,1.60
2022-11-12T05:15:05.923Z,1.33
2022-11-12T05:17:53.288Z,1.27
2022-11-12T05:20:40.465Z,1.30
2022-11-12T05:23:27.221Z,0.80
2022-11-12T05:26:14.113Z,1.60
2022-11-12T05:29:07.553Z,1.00
2022-11-12T05:31:55.805Z,1.30
2022-11-12T05:34:43.325Z,1.20
2022-11-12T05:37:30.264Z,1.33
2022-11-12T05:40:16.878Z,1.30
2022-11-12T05:43:03.747Z,1.20
2022-11-12T05:45:52.187Z,1.53
2022-11-12T05:48:39.121Z,1.87
2022-11-12T05:51:26.460Z,1.80
2022-11-12T05:54:13.479Z,1.97
2022-11-12T05:57:00.398Z,1.80
2022-11-12T05:59:47.221Z,2.40
2022-11-12T06:02:35.767Z,1.77
2022-11-12T06:05:22.674Z,3.17
2022-11-12T06:08:09.560Z,2.43
2022-11-12T06:10:57.171Z,3.40
2022-11-12T06:13:44.020Z,2.87
2022-11-12T06:16:33.168Z,1.57
2022-11-12T06:19:21.460Z,1.70
2022-11-12T06:22:08.941Z,1.93
2022-11-12T06:24:56.074Z,1.07
2022-11-12T06:27:43.070Z,1.97
2022-11-12T06:30:29.984Z,1.03
2022-11-12T06:33:17.403Z,1.10
2022-11-12T06:36:07.545Z,1.10
2022-11-12T06:38:54.534Z,1.23
2022-11-12T06:41:41.395Z,2.00
2022-11-12T06:44:28.800Z,1.90
2022-11-12T06:47:16.034Z,2.70
2022-11-12T06:50:03.461Z,1.93
2022-11-12T06:52:52.051Z,2.33
2022-11-12T06:55:38.972Z,1.60
2022-11-12T06:58:26.275Z,3.47
2022-11-12T07:01:17.496Z,2.67
2022-11-12T07:04:05.087Z,2.17
2022-11-12T07:06:52.593Z,2.20
2022-11-12T07:09:40.800Z,1.80
2022-11-12T07:12:27.928Z,2.10
2022-11-12T07:15:15.032Z,2.43
2022-11-12T07:18:01.687Z,3.37
2022-11-12T07:20:48.877Z,3.53
2022-11-12T07:23:37.583Z,3.00
2022-11-12T07:26:27.950Z,2.40
2022-11-12T07:29:30.044Z,2.20
2022-11-12T07:32:22.310Z,1.70
2022-11-12T07:35:09.673Z,1.60
2022-11-12T07:37:59.652Z,1.77
2022-11-12T07:40:47.182Z,2.17
2022-11-12T07:43:36.562Z,2.10
2022-11-12T07:46:24.956Z,1.67
2022-11-12T07:49:11.728Z,2.67
2022-11-12T07:51:58.564Z,1.57
2022-11-12T07:54:46.882Z,1.17
2022-11-12T07:57:34.335Z,4.30
2022-11-12T08:00:24.365Z,2.03
2022-11-12T08:03:11.207Z,2.03
2022-11-12T08:06:01.424Z,2.03
2022-11-12T08:08:48.371Z,2.20
2022-11-12T08:11:36.096Z,2.37
2022-11-12T08:14:23.187Z,1.20
2022-11-12T08:17:11.613Z,1.50
2022-11-12T08:19:58.618Z,1.43
2022-11-12T08:22:49.204Z,1.40
2022-11-12T08:25:36.797Z,2.10
2022-11-12T08:28:43.124Z,2.40
2022-11-12T08:31:30.291Z,1.20
2022-11-12T08:34:22.640Z,1.30
2022-11-12T08:37:10.863Z,1.50
2022-11-12T08:39:57.557Z,2.00
2022-11-12T08:42:44.769Z,2.27
2022-11-12T08:45:35.753Z,3.10
2022-11-12T08:48:24.489Z,3.30
2022-11-12T08:51:12.909Z,2.93
2022-11-12T08:53:59.717Z,1.70
2022-11-12T08:56:46.551Z,1.90
2022-11-12T08:59:34.549Z,1.60
2022-11-12T09:02:22.225Z,1.60
2022-11-12T09:05:09.586Z,1.17
2022-11-12T09:08:03.294Z,1.30
2022-11-12T09:10:50.832Z,1.53
2022-11-12T09:13:37.769Z,1.20
2022-11-12T09:16:25.449Z,1.83
2022-11-12T09:19:12.653Z,1.60
2022-11-12T09:21:59.269Z,1.27
2022-11-12T09:24:47.771Z,2.00
2022-11-12T09:27:34.942Z,3.63
2022-11-12T09:30:22.315Z,1.37
2022-11-12T09:33:09.210Z,1.43
2022-11-12T09:35:56.673Z,1.27
2022-11-12T09:38:43.708Z,0.80
2022-11-12T09:41:36.037Z,1.00
2022-11-12T09:44:24.575Z,1.00
2022-11-12T09:47:17.205Z,0.90
2022-11-12T09:50:16.999Z,1.00
2022-11-12T09:53:09.152Z,1.00
2022-11-12T09:55:56.837Z,0.70
2022-11-12T09:58:45.911Z,1.10
2022-11-12T10:01:45.468Z,1.00
2022-11-12T10:04:46.767Z,1.00
2022-11-12T10:08:03.092Z,1.20
2022-11-12T10:10:55.191Z,1.03
2022-11-12T10:13:55.052Z,1.20
2022-11-12T10:16:54.681Z,1.10
2022-11-12T10:20:00.242Z,1.30
2022-11-12T10:23:31.982Z,1.73
2022-11-12T10:26:24.810Z,2.35
2022-11-12T10:29:27.364Z,0.93
2022-11-12T10:32:17.300Z,1.13
2022-11-12T10:35:04.345Z,0.90
2022-11-12T10:37:55.976Z,1.30
2022-11-12T10:40:43.978Z,1.20
2022-11-12T10:43:30.786Z,1.42
2022-11-12T10:46:23.117Z,1.20
2022-11-12T10:49:26.304Z,1.20
2022-11-12T10:52:23.902Z,1.30
2022-11-12T10:55:18.055Z,1.60
2022-11-12T10:58:20.995Z,1.20
2022-11-12T11:01:17.194Z,1.20
2022-11-12T11:04:05.759Z,1.42
2022-11-12T11:07:00.654Z,1.10
2022-11-12T11:09:54.674Z,0.77
2022-11-12T11:12:41.647Z,1.20
2022-11-12T11:15:28.481Z,0.98
2022-11-12T11:18:15.739Z,0.70
2022-11-12T11:21:19.017Z,0.80
2022-11-12T11:24:23.686Z,1.20
2022-11-12T11:27:23.284Z,0.70
2022-11-12T11:30:12.347Z,0.98
2022-11-12T11:33:31.136Z,0.82
2022-11-12T11:36:26.114Z,1.00
2022-11-12T11:39:23.649Z,1.00
2022-11-12T11:42:29.973Z,1.80
2022-11-12T11:45:19.883Z,0.90
2022-11-12T11:48:15.082Z,1.10
2022-11-12T11:51:10.150Z,0.75
2022-11-12T11:54:11.105Z,1.23
2022-11-12T11:57:01.529Z,1.13
2022-11-12T12:00:04.537Z,0.95
2022-11-12T12:03:08.259Z,0.95
2022-11-12T12:06:15.826Z,0.70
2022-11-12T12:09:24.146Z,0.98
2022-11-12T12:12:23.967Z,1.00
2022-11-12T12:15:31.618Z,0.82
2022-11-12T12:18:29.481Z,1.20
2022-11-12T12:21:18.959Z,1.00
2022-11-12T12:24:14.069Z,0.80
2022-11-12T12:27:05.758Z,1.00
2022-11-12T12:29:57.392Z,1.05
2022-11-12T12:32:50.262Z,1.00
2022-11-12T12:35:45.846Z,1.08
2022-11-12T12:38:41.561Z,1.30
2022-11-12T12:41:36.823Z,1.50
2022-11-12T12:44:59.053Z,1.20
2022-11-12T12:47:47.685Z,1.80
2022-11-12T12:50:38.756Z,2.40
2022-11-12T12:53:34.879Z,3.13
2022-11-12T12:56:47.136Z,2.55
2022-11-12T12:59:34.446Z,2.67
2022-11-12T13:02:23.801Z,2.55
2022-11-12T13:05:26.157Z,2.25
2022-11-12T13:08:15.354Z,2.50
2022-11-12T13:11:02.916Z,3.03
2022-11-12T13:13:51.641Z,2.95
2022-11-12T13:16:59.350Z,2.67
2022-11-12T13:19:48.398Z,2.30
2022-11-12T13:22:52.460Z,1.85
2022-11-12T13:25:40.051Z,2.13
2022-11-12T13:28:27.560Z,2.42
2022-11-12T13:31:30.116Z,2.17
2022-11-12T13:34:24.141Z,1.98
2022-11-12T13:37:21.042Z,2.17
2022-11-12T13:40:13.381Z,1.58
2022-11-12T13:43:06.032Z,1.52
2022-11-12T13:45:58.338Z,1.40
2022-11-12T13:48:50.233Z,1.60
2022-11-12T13:51:42.136Z,1.30
2022-11-12T13:54:32.637Z,1.17
2022-11-12T13:57:31.897Z,1.33
2022-11-12T14:00:27.966Z,1.50
2022-11-12T14:03:19.923Z,1.33
2022-11-12T14:06:17.227Z,1.17
2022-11-12T14:09:28.445Z,1.00
2022-11-12T14:12:46.342Z,0.80
2022-11-12T14:16:00.631Z,1.23
2022-11-12T14:19:04.971Z,0.90
2022-11-12T14:22:13.912Z,1.00
2022-11-12T14:25:03.248Z,1.10
2022-11-12T14:27:51.655Z,1.13
2022-11-12T14:30:45.151Z,1.25
2022-11-12T14:33:33.822Z,1.00
2022-11-12T14:36:21.995Z,1.00
2022-11-12T14:39:12.790Z,1.30
2022-11-12T14:42:01.075Z,1.40
2022-11-12T14:45:08.155Z,0.83
2022-11-12T14:47:59.461Z,0.70
2022-11-12T14:50:50.886Z,0.98
2022-11-12T14:53:42.952Z,0.97
2022-11-12T14:56:35.926Z,0.83
2022-11-12T14:59:23.160Z,0.70
2022-11-12T15:02:34.618Z,1.03
2022-11-12T15:05:23.547Z,0.80
2022-11-12T15:08:13.385Z,1.10
2022-11-12T15:11:25.043Z,0.93
2022-11-12T15:14:22.220Z,1.00
2022-11-12T15:17:30.348Z,1.00
2022-11-12T15:20:20.097Z,1.10
2022-11-12T15:23:07.286Z,1.30
2022-11-12T15:26:00.177Z,1.10
2022-11-12T15:29:00.373Z,1.13
2022-11-12T15:31:50.971Z,1.30
2022-11-12T15:34:49.734Z,1.07
2022-11-12T15:37:43.679Z,1.43
2022-11-12T15:40:31.740Z,1.90
2022-11-12T15:43:21.261Z,2.10
2022-11-12T15:46:14.969Z,1.70
2022-11-12T15:49:03.516Z,4.43
2022-11-12T15:51:50.766Z,4.00
2022-11-12T15:54:41.027Z,2.83
2022-11-12T15:57:32.760Z,2.27
2022-11-12T16:00:21.415Z,1.90
2022-11-12T16:03:15.955Z,1.50
2022-11-12T16:06:09.020Z,1.83
2022-11-12T16:08:56.325Z,1.90
2022-11-12T16:11:43.585Z,4.70
2022-11-12T16:14:31.592Z,3.03
2022-11-12T16:17:19.927Z,1.97
2022-11-12T16:20:15.038Z,1.70
2022-11-12T16:23:03.745Z,1.27
2022-11-12T16:25:50.745Z,2.00
2022-11-12T16:28:38.069Z,2.70
2022-11-12T16:31:25.611Z,1.90
2022-11-12T16:34:13.130Z,1.77
2022-11-12T16:37:00.217Z,2.07
2022-11-12T16:39:48.780Z,2.03
2022-11-12T16:42:35.919Z,1.87
2022-11-12T16:45:24.306Z,2.37
2022-11-12T16:48:14.680Z,2.17
2022-11-12T16:51:01.749Z,2.00
2022-11-12T16:53:49.000Z,2.07
2022-11-12T16:56:38.790Z,1.90
2022-11-12T16:59:25.628Z,2.13
2022-11-12T17:02:16.381Z,2.83
2022-11-12T17:05:04.516Z,2.47
2022-11-12T17:07:55.798Z,2.07
2022-11-12T17:10:42.893Z,2.03
2022-11-12T17:13:31.171Z,1.73
2022-11-12T17:16:18.402Z,2.67
2022-11-12T17:19:06.124Z,2.23
2022-11-12T17:26:02.662Z,2.43
2022-11-12T17:28:57.582Z,2.00
2022-11-12T17:31:49.875Z,2.63
2022-11-12T17:34:37.125Z,2.40
2022-11-12T17:37:25.419Z,2.90
2022-11-12T17:40:15.046Z,2.30
2022-11-12T17:43:02.482Z,2.97
2022-11-12T17:45:55.948Z,2.53
2022-11-12T17:48:43.053Z,3.47
2022-11-12T17:51:31.080Z,3.20
2022-11-12T17:54:18.714Z,3.70
2022-11-12T17:57:06.278Z,3.13
2022-11-12T17:59:52.942Z,3.73
2022-11-12T18:02:41.623Z,5.83
2022-11-12T18:05:29.003Z,6.83
2022-11-12T18:08:15.872Z,5.43
2022-11-12T18:11:03.582Z,5.80
2022-11-12T18:13:51.119Z,6.00
2022-11-12T18:16:38.483Z,4.13
2022-11-12T18:19:27.111Z,4.20
2022-11-12T18:22:16.427Z,5.20
2022-11-12T18:25:03.766Z,5.23
2022-11-12T18:27:51.126Z,5.37
2022-11-12T18:30:38.331Z,4.83
2022-11-12T18:33:25.956Z,4.20
2022-11-12T18:36:17.781Z,4.53
2022-11-12T18:39:06.422Z,5.13
2022-11-12T18:41:54.989Z,5.00
2022-11-12T18:44:42.369Z,5.43
2022-11-12T18:47:31.080Z,5.37
2022-11-12T18:50:18.798Z,4.23
2022-11-12T18:53:07.542Z,3.97
2022-11-12T18:55:54.415Z,5.13
2022-11-12T18:58:41.535Z,4.93
2022-11-12T19:01:29.424Z,5.30
2022-11-12T19:04:16.370Z,6.13
2022-11-12T19:07:03.101Z,5.80
2022-11-12T19:09:51.520Z,5.47
2022-11-12T19:12:39.423Z,5.73
2022-11-12T19:15:27.249Z,6.63
2022-11-12T19:18:15.430Z,6.13
2022-11-12T19:21:03.865Z,5.83
2022-11-12T19:24:36.604Z,7.33
2022-11-12T19:27:26.668Z,6.07
2022-11-12T19:30:15.433Z,8.27
2022-11-12T19:33:02.453Z,8.20
2022-11-12T19:35:49.201Z,8.37
2022-11-12T19:38:36.002Z,7.10
2022-11-12T19:41:23.706Z,8.77
2022-11-12T19:44:12.176Z,6.10
2022-11-12T19:46:59.539Z,6.70
2022-11-12T19:49:47.030Z,7.23
2022-11-12T19:52:34.515Z,10.60
2022-11-12T19:55:21.774Z,10.23
2022-11-12T19:58:09.711Z,8.07
2022-11-12T20:01:04.934Z,9.23
2022-11-12T20:03:52.484Z,7.17
2022-11-12T20:07:33.741Z,9.77
2022-11-12T20:10:23.238Z,9.73
2022-11-12T20:13:10.682Z,7.83
2022-11-12T20:15:59.432Z,7.70
2022-11-12T20:18:50.848Z,6.37
2022-11-12T20:21:38.656Z,6.80
2022-11-12T20:24:28.038Z,7.43
2022-11-12T20:27:15.335Z,7.13
2022-11-12T20:30:04.488Z,6.60
2022-11-12T20:32:53.053Z,5.33
2022-11-12T20:35:40.683Z,6.27
2022-11-12T20:38:32.322Z,8.13
2022-11-12T20:41:27.266Z,5.90
2022-11-12T20:44:14.147Z,4.93
2022-11-12T20:47:01.616Z,1.67
2022-11-12T20:49:50.233Z,2.67
2022-11-12T20:52:37.458Z,2.27
2022-11-12T20:55:25.056Z,3.77
2022-11-12T20:58:13.402Z,3.47
2022-11-12T21:01:00.577Z,6.60
2022-11-12T21:03:48.158Z,1.60
2022-11-12T21:06:36.586Z,1.90
2022-11-12T21:09:25.207Z,3.47
2022-11-12T21:12:12.531Z,5.30
2022-11-12T21:14:59.981Z,4.47
2022-11-12T21:17:50.911Z,2.27
2022-11-12T21:20:38.171Z,4.00
2022-11-12T21:23:28.958Z,4.13
2022-11-12T21:26:17.616Z,4.87
2022-11-12T21:29:05.074Z,6.23
2022-11-12T21:31:52.029Z,6.00
2022-11-12T21:34:39.072Z,8.20
2022-11-12T21:37:32.148Z,7.00
2022-11-12T21:40:24.470Z,6.33
2022-11-12T21:43:11.290Z,5.93
2022-11-12T21:45:59.120Z,8.83
2022-11-12T21:48:49.001Z,7.40
2022-11-12T21:51:39.312Z,7.77
2022-11-12T21:54:26.621Z,8.60
2022-11-12T21:57:18.576Z,7.50
2022-11-12T22:00:39.046Z,8.00
2022-11-12T22:03:16.078Z,6.17
2022-11-12T22:06:03.980Z,5.63
2022-11-12T22:08:52.843Z,6.53
2022-11-12T22:11:39.910Z,6.60
2022-11-12T22:14:28.163Z,5.93
2022-11-12T22:17:15.263Z,5.53
2022-11-12T22:20:04.658Z,5.17
2022-11-12T22:22:53.620Z,4.70
2022-11-12T22:25:42.050Z,5.13
2022-11-12T22:28:29.498Z,5.73
2022-11-12T22:31:21.108Z,4.53
2022-11-12T22:34:10.355Z,5.27
2022-11-12T22:36:57.978Z,4.60
2022-11-12T22:39:44.871Z,4.13
2022-11-12T22:42:32.159Z,3.83
2022-11-12T22:45:28.793Z,3.17
2022-11-12T22:48:17.275Z,3.63
2022-11-12T22:51:06.394Z,3.60
2022-11-12T22:53:55.193Z,3.70
2022-11-12T22:56:42.000Z,3.60
2022-11-12T22:59:29.196Z,3.60
2022-11-12T23:02:15.889Z,3.13
2022-11-12T23:05:04.183Z,3.50
2022-11-12T23:07:51.533Z,3.10
2022-11-12T23:10:43.038Z,3.03
2022-11-12T23:13:32.962Z,3.87
2022-11-12T23:16:22.590Z,3.03
2022-11-12T23:19:09.561Z,2.77
2022-11-12T23:21:57.953Z,2.40
2022-11-12T23:24:45.142Z,2.83
2022-11-12T23:27:32.061Z,3.50
2022-11-12T23:30:19.517Z,3.27
2022-11-12T23:33:06.528Z,3.17
2022-11-12T23:35:53.431Z,3.33
2022-11-12T23:38:41.941Z,3.07
2022-11-12T23:41:29.003Z,3.47
2022-11-12T23:44:15.711Z,2.63
2022-11-12T23:47:02.522Z,2.67
2022-11-12T23:49:49.218Z,1.97
2022-11-12T23:52:36.255Z,3.23
2022-11-12T23:55:24.572Z,2.50
2022-11-12T23:58:12.260Z,2.50
